sensor_id;sensor_type;location;lat;lon;timestamp;temperature;humidity
18581;DHT22;9420;50.876;7.012;2022-10-31T00:01:27;12.10;99.90
18581;DHT22;9420;50.876;7.012;2022-10-31T00:03:56;12.10;99.90
18581;DHT22;9420;50.876;7.012;2022-10-31T00:06:24;12.10;99.90
18581;DHT22;9420;50.876;7.012;2022-10-31T00:08:52;12.10;99.90
18581;DHT22;9420;50.876;7.012;2022-10-31T00:11:21;12.10;99.90
18581;DHT22;9420;50.876;7.012;2022-10-31T00:13:50;12.10;99.90
18581;DHT22;9420;50.876;7.012;2022-10-31T00:16:19;12.20;99.90
18581;DHT22;9420;50.876;7.012;2022-10-31T00:18:48;12.40;99.90
18581;DHT22;9420;50.876;7.012;2022-10-31T00:21:16;12.30;99.90
18581;DHT22;9420;50.876;7.012;2022-10-31T00:23:43;12.20;99.90
18581;DHT22;9420;50.876;7.012;2022-10-31T00:26:12;12.20;99.90
18581;DHT22;9420;50.876;7.012;2022-10-31T00:28:39;12.20;99.90
18581;DHT22;9420;50.876;7.012;2022-10-31T00:31:09;12.20;99.90
18581;DHT22;9420;50.876;7.012;2022-10-31T00:33:38;12.20;99.90
18581;DHT22;9420;50.876;7.012;2022-10-31T00:36:07;12.20;99.90
18581;DHT22;9420;50.876;7.012;2022-10-31T00:38:38;12.20;99.90
18581;DHT22;9420;50.876;7.012;2022-10-31T00:41:05;12.20;99.90
18581;DHT22;9420;50.876;7.012;2022-10-31T00:43:32;12.10;99.90
18581;DHT22;9420;50.876;7.012;2022-10-31T00:45:59;12.20;99.90
18581;DHT22;9420;50.876;7.012;2022-10-31T00:48:29;12.30;99.90
18581;DHT22;9420;50.876;7.012;2022-10-31T00:50:56;12.20;99.90
18581;DHT22;9420;50.876;7.012;2022-10-31T00:53:23;12.30;99.90
18581;DHT22;9420;50.876;7.012;2022-10-31T00:55:51;12.30;99.90
18581;DHT22;9420;50.876;7.012;2022-10-31T00:58:18;12.30;99.90
18581;DHT22;9420;50.876;7.012;2022-10-31T01:00:47;12.40;99.90
18581;DHT22;9420;50.876;7.012;2022-10-31T01:03:20;12.40;99.90
18581;DHT22;9420;50.876;7.012;2022-10-31T01:05:58;12.40;99.90
18581;DHT22;9420;50.876;7.012;2022-10-31T01:08:27;12.30;99.90
18581;DHT22;9420;50.876;7.012;2022-10-31T01:11:00;12.40;99.90
18581;DHT22;9420;50.876;7.012;2022-10-31T01:13:33;12.40;99.90
18581;DHT22;9420;50.876;7.012;2022-10-31T01:16:03;12.40;99.90
18581;DHT22;9420;50.876;7.012;2022-10-31T01:18:33;12.40;99.90
18581;DHT22;9420;50.876;7.012;2022-10-31T01:21:08;12.40;99.90
18581;DHT22;9420;50.876;7.012;2022-10-31T01:23:37;12.40;99.90
18581;DHT22;9420;50.876;7.012;2022-10-31T01:26:07;12.30;99.90
18581;DHT22;9420;50.876;7.012;2022-10-31T01:28:39;12.30;99.90
18581;DHT22;9420;50.876;7.012;2022-10-31T01:31:11;12.30;99.90
18581;DHT22;9420;50.876;7.012;2022-10-31T01:33:39;12.20;99.90
18581;DHT22;9420;50.876;7.012;2022-10-31T01:36:17;12.20;99.90
18581;DHT22;9420;50.876;7.012;2022-10-31T01:38:50;12.20;99.90
18581;DHT22;9420;50.876;7.012;2022-10-31T01:41:28;12.20;99.90
18581;DHT22;9420;50.876;7.012;2022-10-31T01:43:59;12.20;99.90
18581;DHT22;9420;50.876;7.012;2022-10-31T01:46:29;12.20;99.90
18581;DHT22;9420;50.876;7.012;2022-10-31T01:49:02;12.20;99.90
18581;DHT22;9420;50.876;7.012;2022-10-31T01:51:38;12.20;99.90
18581;DHT22;9420;50.876;7.012;2022-10-31T01:54:14;12.20;99.90
18581;DHT22;9420;50.876;7.012;2022-10-31T01:56:49;12.20;99.90
18581;DHT22;9420;50.876;7.012;2022-10-31T01:59:21;12.20;99.90
18581;DHT22;9420;50.876;7.012;2022-10-31T02:01:50;12.20;99.90
18581;DHT22;9420;50.876;7.012;2022-10-31T02:04:19;12.20;99.90
18581;DHT22;9420;50.876;7.012;2022-10-31T02:06:56;12.10;99.90
18581;DHT22;9420;50.876;7.012;2022-10-31T02:09:26;12.10;99.90
18581;DHT22;9420;50.876;7.012;2022-10-31T02:11:57;12.10;99.90
18581;DHT22;9420;50.876;7.012;2022-10-31T02:14:27;12.10;99.90
18581;DHT22;9420;50.876;7.012;2022-10-31T02:16:56;12.00;99.90
18581;DHT22;9420;50.876;7.012;2022-10-31T02:19:29;12.10;99.90
18581;DHT22;9420;50.876;7.012;2022-10-31T02:22:07;12.10;99.90
18581;DHT22;9420;50.876;7.012;2022-10-31T02:24:56;12.00;99.90
18581;DHT22;9420;50.876;7.012;2022-10-31T02:27:52;12.00;99.90
18581;DHT22;9420;50.876;7.012;2022-10-31T02:30:39;12.10;99.90
18581;DHT22;9420;50.876;7.012;2022-10-31T02:33:20;12.10;99.90
18581;DHT22;9420;50.876;7.012;2022-10-31T02:36:02;12.10;99.90
18581;DHT22;9420;50.876;7.012;2022-10-31T02:38:48;12.10;99.90
18581;DHT22;9420;50.876;7.012;2022-10-31T02:41:28;12.00;99.90
18581;DHT22;9420;50.876;7.012;2022-10-31T02:44:06;12.00;99.90
18581;DHT22;9420;50.876;7.012;2022-10-31T02:46:44;12.00;99.90
18581;DHT22;9420;50.876;7.012;2022-10-31T02:49:21;11.90;99.90
18581;DHT22;9420;50.876;7.012;2022-10-31T02:51:53;11.80;99.90
18581;DHT22;9420;50.876;7.012;2022-10-31T02:54:23;11.90;99.90
18581;DHT22;9420;50.876;7.012;2022-10-31T02:56:54;11.90;99.90
18581;DHT22;9420;50.876;7.012;2022-10-31T02:59:27;11.90;99.90
18581;DHT22;9420;50.876;7.012;2022-10-31T03:02:22;11.90;99.90
18581;DHT22;9420;50.876;7.012;2022-10-31T03:05:13;12.00;99.90
18581;DHT22;9420;50.876;7.012;2022-10-31T03:07:57;12.00;99.90
18581;DHT22;9420;50.876;7.012;2022-10-31T03:10:35;12.00;99.90
18581;DHT22;9420;50.876;7.012;2022-10-31T03:13:12;12.00;99.90
18581;DHT22;9420;50.876;7.012;2022-10-31T03:15:50;12.00;99.90
18581;DHT22;9420;50.876;7.012;2022-10-31T03:18:24;12.00;99.90
18581;DHT22;9420;50.876;7.012;2022-10-31T03:21:01;12.00;99.90
18581;DHT22;9420;50.876;7.012;2022-10-31T03:23:35;12.10;99.90
18581;DHT22;9420;50.876;7.012;2022-10-31T03:26:07;12.00;99.90
18581;DHT22;9420;50.876;7.012;2022-10-31T03:28:41;12.00;99.90
18581;DHT22;9420;50.876;7.012;2022-10-31T03:31:16;11.90;99.90
18581;DHT22;9420;50.876;7.012;2022-10-31T03:33:46;12.00;99.90
18581;DHT22;9420;50.876;7.012;2022-10-31T03:36:18;11.90;99.90
18581;DHT22;9420;50.876;7.012;2022-10-31T03:38:46;12.00;99.90
18581;DHT22;9420;50.876;7.012;2022-10-31T03:41:17;12.00;99.90
18581;DHT22;9420;50.876;7.012;2022-10-31T03:43:52;12.00;99.90
18581;DHT22;9420;50.876;7.012;2022-10-31T03:46:24;12.00;99.90
18581;DHT22;9420;50.876;7.012;2022-10-31T03:48:51;12.00;99.90
18581;DHT22;9420;50.876;7.012;2022-10-31T03:51:24;11.90;99.90
18581;DHT22;9420;50.876;7.012;2022-10-31T03:53:56;11.90;99.90
18581;DHT22;9420;50.876;7.012;2022-10-31T03:56:30;11.80;99.90
18581;DHT22;9420;50.876;7.012;2022-10-31T03:59:04;11.80;99.90
18581;DHT22;9420;50.876;7.012;2022-10-31T04:01:39;11.70;99.90
18581;DHT22;9420;50.876;7.012;2022-10-31T04:04:12;11.70;99.90
18581;DHT22;9420;50.876;7.012;2022-10-31T04:06:43;11.70;99.90
18581;DHT22;9420;50.876;7.012;2022-10-31T04:09:13;11.60;99.90
18581;DHT22;9420;50.876;7.012;2022-10-31T04:11:45;11.60;99.90
18581;DHT22;9420;50.876;7.012;2022-10-31T04:14:16;11.60;99.90
18581;DHT22;9420;50.876;7.012;2022-10-31T04:16:44;11.50;99.90
18581;DHT22;9420;50.876;7.012;2022-10-31T04:19:12;11.50;99.90
18581;DHT22;9420;50.876;7.012;2022-10-31T04:21:42;11.50;99.90
18581;DHT22;9420;50.876;7.012;2022-10-31T04:24:10;11.60;99.90
18581;DHT22;9420;50.876;7.012;2022-10-31T04:26:37;11.50;99.90
18581;DHT22;9420;50.876;7.012;2022-10-31T04:29:04;11.50;99.90
18581;DHT22;9420;50.876;7.012;2022-10-31T04:31:31;11.50;99.90
18581;DHT22;9420;50.876;7.012;2022-10-31T04:33:58;11.50;99.90
18581;DHT22;9420;50.876;7.012;2022-10-31T04:36:25;11.50;99.90
18581;DHT22;9420;50.876;7.012;2022-10-31T04:38:54;11.40;99.90
18581;DHT22;9420;50.876;7.012;2022-10-31T04:41:21;11.30;99.90
18581;DHT22;9420;50.876;7.012;2022-10-31T04:43:48;11.40;99.90
18581;DHT22;9420;50.876;7.012;2022-10-31T04:46:15;11.30;99.90
18581;DHT22;9420;50.876;7.012;2022-10-31T04:48:42;11.40;99.90
18581;DHT22;9420;50.876;7.012;2022-10-31T04:51:09;11.30;99.90
18581;DHT22;9420;50.876;7.012;2022-10-31T04:53:36;11.30;99.90
18581;DHT22;9420;50.876;7.012;2022-10-31T04:56:06;11.30;99.90
18581;DHT22;9420;50.876;7.012;2022-10-31T04:58:33;11.30;99.90
18581;DHT22;9420;50.876;7.012;2022-10-31T05:01:00;11.30;99.90
18581;DHT22;9420;50.876;7.012;2022-10-31T05:03:27;11.20;99.90
18581;DHT22;9420;50.876;7.012;2022-10-31T05:05:54;11.20;99.90
18581;DHT22;9420;50.876;7.012;2022-10-31T05:08:21;11.30;99.90
18581;DHT22;9420;50.876;7.012;2022-10-31T05:10:48;11.30;99.90
18581;DHT22;9420;50.876;7.012;2022-10-31T05:13:16;11.20;99.90
18581;DHT22;9420;50.876;7.012;2022-10-31T05:15:43;11.20;99.90
18581;DHT22;9420;50.876;7.012;2022-10-31T05:18:10;11.10;99.90
18581;DHT22;9420;50.876;7.012;2022-10-31T05:20:37;11.00;99.90
18581;DHT22;9420;50.876;7.012;2022-10-31T05:23:04;11.10;99.90
18581;DHT22;9420;50.876;7.012;2022-10-31T05:25:31;11.10;99.90
18581;DHT22;9420;50.876;7.012;2022-10-31T05:27:59;11.20;99.90
18581;DHT22;9420;50.876;7.012;2022-10-31T05:30:30;11.10;99.90
18581;DHT22;9420;50.876;7.012;2022-10-31T05:32:58;11.20;99.90
18581;DHT22;9420;50.876;7.012;2022-10-31T05:35:28;11.10;99.90
18581;DHT22;9420;50.876;7.012;2022-10-31T05:37:57;11.00;99.90
18581;DHT22;9420;50.876;7.012;2022-10-31T05:40:26;10.90;99.90
18581;DHT22;9420;50.876;7.012;2022-10-31T05:42:54;11.00;99.90
18581;DHT22;9420;50.876;7.012;2022-10-31T05:45:24;11.00;99.90
18581;DHT22;9420;50.876;7.012;2022-10-31T05:47:53;11.00;99.90
18581;DHT22;9420;50.876;7.012;2022-10-31T05:50:22;10.90;99.90
18581;DHT22;9420;50.876;7.012;2022-10-31T05:52:55;10.80;99.90
18581;DHT22;9420;50.876;7.012;2022-10-31T05:55:23;10.80;99.90
18581;DHT22;9420;50.876;7.012;2022-10-31T05:57:51;10.70;99.90
18581;DHT22;9420;50.876;7.012;2022-10-31T06:00:19;10.70;99.90
18581;DHT22;9420;50.876;7.012;2022-10-31T06:02:47;10.70;99.90
18581;DHT22;9420;50.876;7.012;2022-10-31T06:05:16;10.70;99.90
18581;DHT22;9420;50.876;7.012;2022-10-31T06:07:43;10.70;99.90
18581;DHT22;9420;50.876;7.012;2022-10-31T06:10:10;10.70;99.90
18581;DHT22;9420;50.876;7.012;2022-10-31T06:12:37;10.80;99.90
18581;DHT22;9420;50.876;7.012;2022-10-31T06:15:06;10.80;99.90
18581;DHT22;9420;50.876;7.012;2022-10-31T06:17:35;10.90;99.90
18581;DHT22;9420;50.876;7.012;2022-10-31T06:20:03;10.90;99.90
18581;DHT22;9420;50.876;7.012;2022-10-31T06:22:33;10.80;99.90
18581;DHT22;9420;50.876;7.012;2022-10-31T06:25:00;10.80;99.90
18581;DHT22;9420;50.876;7.012;2022-10-31T06:27:27;10.80;99.90
18581;DHT22;9420;50.876;7.012;2022-10-31T06:29:54;10.70;99.90
18581;DHT22;9420;50.876;7.012;2022-10-31T06:32:21;10.80;99.90
18581;DHT22;9420;50.876;7.012;2022-10-31T06:34:48;10.80;99.90
18581;DHT22;9420;50.876;7.012;2022-10-31T06:37:15;10.80;99.90
18581;DHT22;9420;50.876;7.012;2022-10-31T06:39:44;10.80;99.90
18581;DHT22;9420;50.876;7.012;2022-10-31T06:42:11;10.80;99.90
18581;DHT22;9420;50.876;7.012;2022-10-31T06:44:38;10.90;99.90
18581;DHT22;9420;50.876;7.012;2022-10-31T06:47:05;11.00;99.90
18581;DHT22;9420;50.876;7.012;2022-10-31T06:49:32;11.10;99.90
18581;DHT22;9420;50.876;7.012;2022-10-31T06:51:59;11.10;99.90
18581;DHT22;9420;50.876;7.012;2022-10-31T06:54:27;11.20;99.90
18581;DHT22;9420;50.876;7.012;2022-10-31T06:56:55;11.30;99.90
18581;DHT22;9420;50.876;7.012;2022-10-31T06:59:22;11.30;99.90
18581;DHT22;9420;50.876;7.012;2022-10-31T07:01:50;11.40;99.90
18581;DHT22;9420;50.876;7.012;2022-10-31T07:04:17;11.50;99.90
18581;DHT22;9420;50.876;7.012;2022-10-31T07:06:44;11.50;99.90
18581;DHT22;9420;50.876;7.012;2022-10-31T07:09:11;11.50;99.90
18581;DHT22;9420;50.876;7.012;2022-10-31T07:11:39;11.60;99.90
18581;DHT22;9420;50.876;7.012;2022-10-31T07:14:07;11.60;99.90
18581;DHT22;9420;50.876;7.012;2022-10-31T07:16:34;11.60;99.90
18581;DHT22;9420;50.876;7.012;2022-10-31T07:19:01;11.70;99.90
18581;DHT22;9420;50.876;7.012;2022-10-31T07:21:28;11.70;99.90
18581;DHT22;9420;50.876;7.012;2022-10-31T07:23:56;11.80;99.90
18581;DHT22;9420;50.876;7.012;2022-10-31T07:26:24;11.80;99.90
18581;DHT22;9420;50.876;7.012;2022-10-31T07:28:51;11.80;99.90
18581;DHT22;9420;50.876;7.012;2022-10-31T07:31:19;11.80;99.90
18581;DHT22;9420;50.876;7.012;2022-10-31T07:33:47;11.80;99.90
18581;DHT22;9420;50.876;7.012;2022-10-31T07:36:14;11.90;99.90
18581;DHT22;9420;50.876;7.012;2022-10-31T07:38:41;11.90;99.90
18581;DHT22;9420;50.876;7.012;2022-10-31T07:41:08;12.00;99.90
18581;DHT22;9420;50.876;7.012;2022-10-31T07:43:35;12.00;99.90
18581;DHT22;9420;50.876;7.012;2022-10-31T07:46:02;12.00;99.90
18581;DHT22;9420;50.876;7.012;2022-10-31T07:48:30;12.00;99.90
18581;DHT22;9420;50.876;7.012;2022-10-31T07:50:57;12.10;99.90
18581;DHT22;9420;50.876;7.012;2022-10-31T07:53:24;12.10;99.90
18581;DHT22;9420;50.876;7.012;2022-10-31T07:55:51;12.10;99.90
18581;DHT22;9420;50.876;7.012;2022-10-31T07:58:19;12.20;99.90
18581;DHT22;9420;50.876;7.012;2022-10-31T08:00:47;12.20;99.90
18581;DHT22;9420;50.876;7.012;2022-10-31T08:03:15;12.30;99.90
18581;DHT22;9420;50.876;7.012;2022-10-31T08:05:45;12.30;99.90
18581;DHT22;9420;50.876;7.012;2022-10-31T08:08:13;12.40;99.90
18581;DHT22;9420;50.876;7.012;2022-10-31T08:10:41;12.50;99.90
18581;DHT22;9420;50.876;7.012;2022-10-31T08:13:10;12.50;99.90
18581;DHT22;9420;50.876;7.012;2022-10-31T08:15:39;12.60;99.90
18581;DHT22;9420;50.876;7.012;2022-10-31T08:18:11;12.70;99.90
18581;DHT22;9420;50.876;7.012;2022-10-31T08:20:39;12.70;99.90
18581;DHT22;9420;50.876;7.012;2022-10-31T08:23:09;12.80;99.90
18581;DHT22;9420;50.876;7.012;2022-10-31T08:25:38;12.80;99.90
18581;DHT22;9420;50.876;7.012;2022-10-31T08:28:06;12.90;99.90
18581;DHT22;9420;50.876;7.012;2022-10-31T08:30:35;12.90;99.90
18581;DHT22;9420;50.876;7.012;2022-10-31T08:33:05;13.00;99.90
18581;DHT22;9420;50.876;7.012;2022-10-31T08:35:33;13.00;99.90
18581;DHT22;9420;50.876;7.012;2022-10-31T08:38:00;13.00;99.90
18581;DHT22;9420;50.876;7.012;2022-10-31T08:40:30;13.10;99.90
18581;DHT22;9420;50.876;7.012;2022-10-31T08:42:59;13.30;99.90
18581;DHT22;9420;50.876;7.012;2022-10-31T08:45:27;13.20;99.90
18581;DHT22;9420;50.876;7.012;2022-10-31T08:47:58;13.30;99.90
18581;DHT22;9420;50.876;7.012;2022-10-31T08:50:28;13.40;99.90
18581;DHT22;9420;50.876;7.012;2022-10-31T08:53:00;13.50;99.90
18581;DHT22;9420;50.876;7.012;2022-10-31T08:55:29;13.40;99.90
18581;DHT22;9420;50.876;7.012;2022-10-31T08:57:56;13.50;99.90
18581;DHT22;9420;50.876;7.012;2022-10-31T09:00:24;13.50;99.90
18581;DHT22;9420;50.876;7.012;2022-10-31T09:02:55;13.60;99.90
18581;DHT22;9420;50.876;7.012;2022-10-31T09:05:23;13.60;99.90
18581;DHT22;9420;50.876;7.012;2022-10-31T09:07:51;13.80;99.90
18581;DHT22;9420;50.876;7.012;2022-10-31T09:10:21;13.70;99.90
18581;DHT22;9420;50.876;7.012;2022-10-31T09:12:55;13.80;99.90
18581;DHT22;9420;50.876;7.012;2022-10-31T09:15:23;13.80;99.90
18581;DHT22;9420;50.876;7.012;2022-10-31T09:17:50;13.90;99.90
18581;DHT22;9420;50.876;7.012;2022-10-31T09:20:17;13.90;99.90
18581;DHT22;9420;50.876;7.012;2022-10-31T09:22:45;14.00;99.90
18581;DHT22;9420;50.876;7.012;2022-10-31T09:25:13;14.10;99.90
18581;DHT22;9420;50.876;7.012;2022-10-31T09:27:40;14.20;99.90
18581;DHT22;9420;50.876;7.012;2022-10-31T09:30:09;14.20;99.90
18581;DHT22;9420;50.876;7.012;2022-10-31T09:32:37;14.30;99.90
18581;DHT22;9420;50.876;7.012;2022-10-31T09:35:05;14.40;99.90
18581;DHT22;9420;50.876;7.012;2022-10-31T09:37:33;14.50;99.90
18581;DHT22;9420;50.876;7.012;2022-10-31T09:40:00;14.60;99.90
18581;DHT22;9420;50.876;7.012;2022-10-31T09:42:40;14.70;99.90
18581;DHT22;9420;50.876;7.012;2022-10-31T09:45:20;14.70;99.90
18581;DHT22;9420;50.876;7.012;2022-10-31T09:48:05;14.90;99.90
18581;DHT22;9420;50.876;7.012;2022-10-31T09:50:46;15.00;99.90
18581;DHT22;9420;50.876;7.012;2022-10-31T09:53:23;15.10;99.90
18581;DHT22;9420;50.876;7.012;2022-10-31T09:55:57;15.20;99.90
18581;DHT22;9420;50.876;7.012;2022-10-31T09:58:28;15.30;99.90
18581;DHT22;9420;50.876;7.012;2022-10-31T10:01:00;15.30;99.90
18581;DHT22;9420;50.876;7.012;2022-10-31T10:03:34;15.40;99.90
18581;DHT22;9420;50.876;7.012;2022-10-31T10:06:11;15.60;99.90
18581;DHT22;9420;50.876;7.012;2022-10-31T10:08:42;15.70;99.90
18581;DHT22;9420;50.876;7.012;2022-10-31T10:11:26;15.80;99.90
18581;DHT22;9420;50.876;7.012;2022-10-31T10:14:21;15.90;99.90
18581;DHT22;9420;50.876;7.012;2022-10-31T10:17:11;16.00;99.90
18581;DHT22;9420;50.876;7.012;2022-10-31T10:23:02;16.30;99.90
18581;DHT22;9420;50.876;7.012;2022-10-31T10:25:47;16.40;99.90
18581;DHT22;9420;50.876;7.012;2022-10-31T10:28:25;16.50;99.90
18581;DHT22;9420;50.876;7.012;2022-10-31T10:31:01;16.70;99.90
18581;DHT22;9420;50.876;7.012;2022-10-31T10:33:37;16.80;99.90
18581;DHT22;9420;50.876;7.012;2022-10-31T10:36:12;17.00;99.90
18581;DHT22;9420;50.876;7.012;2022-10-31T10:38:49;17.10;99.90
18581;DHT22;9420;50.876;7.012;2022-10-31T10:41:20;17.40;99.90
18581;DHT22;9420;50.876;7.012;2022-10-31T10:43:49;17.60;99.90
18581;DHT22;9420;50.876;7.012;2022-10-31T10:46:23;17.70;99.90
18581;DHT22;9420;50.876;7.012;2022-10-31T10:49:18;17.80;99.90
18581;DHT22;9420;50.876;7.012;2022-10-31T10:51:51;17.90;99.90
18581;DHT22;9420;50.876;7.012;2022-10-31T10:54:45;17.90;99.90
18581;DHT22;9420;50.876;7.012;2022-10-31T10:57:25;17.80;99.90
18581;DHT22;9420;50.876;7.012;2022-10-31T11:00:17;17.80;99.90
18581;DHT22;9420;50.876;7.012;2022-10-31T11:02:47;17.80;99.90
18581;DHT22;9420;50.876;7.012;2022-10-31T11:05:25;17.70;99.90
18581;DHT22;9420;50.876;7.012;2022-10-31T11:07:58;17.70;99.90
18581;DHT22;9420;50.876;7.012;2022-10-31T11:10:25;17.70;99.90
18581;DHT22;9420;50.876;7.012;2022-10-31T11:13:14;17.70;99.90
18581;DHT22;9420;50.876;7.012;2022-10-31T11:15:57;17.70;99.90
18581;DHT22;9420;50.876;7.012;2022-10-31T11:18:29;17.60;99.90
18581;DHT22;9420;50.876;7.012;2022-10-31T11:21:01;17.70;99.90
18581;DHT22;9420;50.876;7.012;2022-10-31T11:23:30;17.70;99.90
18581;DHT22;9420;50.876;7.012;2022-10-31T11:26:00;17.80;99.90
18581;DHT22;9420;50.876;7.012;2022-10-31T11:28:30;18.00;99.90
18581;DHT22;9420;50.876;7.012;2022-10-31T11:31:05;18.00;99.90
18581;DHT22;9420;50.876;7.012;2022-10-31T11:33:35;18.30;99.90
18581;DHT22;9420;50.876;7.012;2022-10-31T11:36:15;18.50;99.90
18581;DHT22;9420;50.876;7.012;2022-10-31T11:38:47;18.90;99.90
18581;DHT22;9420;50.876;7.012;2022-10-31T11:41:17;19.20;99.90
18581;DHT22;9420;50.876;7.012;2022-10-31T11:43:49;19.70;99.90
18581;DHT22;9420;50.876;7.012;2022-10-31T11:46:22;20.00;99.90
18581;DHT22;9420;50.876;7.012;2022-10-31T11:48:56;20.40;99.90
18581;DHT22;9420;50.876;7.012;2022-10-31T11:51:27;21.00;99.90
18581;DHT22;9420;50.876;7.012;2022-10-31T11:53:58;21.20;99.90
18581;DHT22;9420;50.876;7.012;2022-10-31T11:56:36;21.40;99.90
18581;DHT22;9420;50.876;7.012;2022-10-31T11:59:13;21.20;99.90
18581;DHT22;9420;50.876;7.012;2022-10-31T12:01:47;20.80;99.90
18581;DHT22;9420;50.876;7.012;2022-10-31T12:04:16;20.90;99.90
18581;DHT22;9420;50.876;7.012;2022-10-31T12:06:46;20.60;99.90
18581;DHT22;9420;50.876;7.012;2022-10-31T12:09:20;20.60;99.90
18581;DHT22;9420;50.876;7.012;2022-10-31T12:12:17;20.50;99.90
18581;DHT22;9420;50.876;7.012;2022-10-31T12:15:07;20.40;99.90
18581;DHT22;9420;50.876;7.012;2022-10-31T12:17:51;20.40;99.90
18581;DHT22;9420;50.876;7.012;2022-10-31T12:20:26;20.70;99.90
18581;DHT22;9420;50.876;7.012;2022-10-31T12:23:12;20.90;99.90
18581;DHT22;9420;50.876;7.012;2022-10-31T12:25:47;21.00;99.90
18581;DHT22;9420;50.876;7.012;2022-10-31T12:28:40;20.90;99.90
18581;DHT22;9420;50.876;7.012;2022-10-31T12:31:31;20.90;99.90
18581;DHT22;9420;50.876;7.012;2022-10-31T12:34:33;20.80;99.90
18581;DHT22;9420;50.876;7.012;2022-10-31T12:37:15;20.70;99.90
18581;DHT22;9420;50.876;7.012;2022-10-31T12:40:06;20.70;99.90
18581;DHT22;9420;50.876;7.012;2022-10-31T12:42:57;20.60;99.90
18581;DHT22;9420;50.876;7.012;2022-10-31T12:45:45;20.50;99.90
18581;DHT22;9420;50.876;7.012;2022-10-31T12:48:38;20.20;99.90
18581;DHT22;9420;50.876;7.012;2022-10-31T12:51:33;20.00;99.90
18581;DHT22;9420;50.876;7.012;2022-10-31T12:54:23;19.60;99.90
18581;DHT22;9420;50.876;7.012;2022-10-31T12:57:09;19.50;99.90
18581;DHT22;9420;50.876;7.012;2022-10-31T12:59:48;19.40;99.90
18581;DHT22;9420;50.876;7.012;2022-10-31T13:02:21;19.10;99.90
18581;DHT22;9420;50.876;7.012;2022-10-31T13:04:56;19.10;99.90
18581;DHT22;9420;50.876;7.012;2022-10-31T13:07:34;19.00;99.90
18581;DHT22;9420;50.876;7.012;2022-10-31T13:10:13;18.80;99.90
18581;DHT22;9420;50.876;7.012;2022-10-31T13:12:48;18.80;99.90
18581;DHT22;9420;50.876;7.012;2022-10-31T13:15:20;18.60;99.90
18581;DHT22;9420;50.876;7.012;2022-10-31T13:17:53;18.60;99.90
18581;DHT22;9420;50.876;7.012;2022-10-31T13:20:25;18.60;99.90
18581;DHT22;9420;50.876;7.012;2022-10-31T13:23:03;18.60;99.90
18581;DHT22;9420;50.876;7.012;2022-10-31T13:25:40;18.50;99.90
18581;DHT22;9420;50.876;7.012;2022-10-31T13:28:24;18.50;99.90
18581;DHT22;9420;50.876;7.012;2022-10-31T13:30:56;18.60;99.90
18581;DHT22;9420;50.876;7.012;2022-10-31T13:33:26;18.60;99.90
18581;DHT22;9420;50.876;7.012;2022-10-31T13:36:07;18.60;99.90
18581;DHT22;9420;50.876;7.012;2022-10-31T13:38:50;18.60;99.90
18581;DHT22;9420;50.876;7.012;2022-10-31T13:41:30;18.50;99.90
18581;DHT22;9420;50.876;7.012;2022-10-31T13:44:19;18.40;99.90
18581;DHT22;9420;50.876;7.012;2022-10-31T13:46:50;18.40;99.90
18581;DHT22;9420;50.876;7.012;2022-10-31T13:49:26;18.30;99.90
18581;DHT22;9420;50.876;7.012;2022-10-31T13:52:21;18.20;99.90
18581;DHT22;9420;50.876;7.012;2022-10-31T13:54:52;18.10;99.90
18581;DHT22;9420;50.876;7.012;2022-10-31T13:57:31;18.10;99.90
18581;DHT22;9420;50.876;7.012;2022-10-31T14:00:06;18.10;99.90
18581;DHT22;9420;50.876;7.012;2022-10-31T14:02:53;18.10;99.90
18581;DHT22;9420;50.876;7.012;2022-10-31T14:05:24;18.00;99.90
18581;DHT22;9420;50.876;7.012;2022-10-31T14:07:54;18.00;99.90
18581;DHT22;9420;50.876;7.012;2022-10-31T14:10:26;18.10;99.90
18581;DHT22;9420;50.876;7.012;2022-10-31T14:13:03;18.00;99.90
18581;DHT22;9420;50.876;7.012;2022-10-31T14:15:34;18.00;99.90
18581;DHT22;9420;50.876;7.012;2022-10-31T14:18:06;18.00;99.90
18581;DHT22;9420;50.876;7.012;2022-10-31T14:20:48;17.90;99.90
18581;DHT22;9420;50.876;7.012;2022-10-31T14:23:36;17.90;99.90
18581;DHT22;9420;50.876;7.012;2022-10-31T14:29:00;17.80;99.90
18581;DHT22;9420;50.876;7.012;2022-10-31T14:31:34;17.80;99.90
18581;DHT22;9420;50.876;7.012;2022-10-31T14:34:18;17.80;99.90
18581;DHT22;9420;50.876;7.012;2022-10-31T14:36:58;17.80;99.90
18581;DHT22;9420;50.876;7.012;2022-10-31T14:39:38;17.80;99.90
18581;DHT22;9420;50.876;7.012;2022-10-31T14:42:33;17.90;99.90
18581;DHT22;9420;50.876;7.012;2022-10-31T14:45:31;17.90;99.90
18581;DHT22;9420;50.876;7.012;2022-10-31T14:48:24;18.00;99.90
18581;DHT22;9420;50.876;7.012;2022-10-31T14:51:11;18.00;99.90
18581;DHT22;9420;50.876;7.012;2022-10-31T14:53:46;18.00;99.90
18581;DHT22;9420;50.876;7.012;2022-10-31T14:56:20;18.00;99.90
18581;DHT22;9420;50.876;7.012;2022-10-31T14:58:53;18.00;99.90
18581;DHT22;9420;50.876;7.012;2022-10-31T15:01:25;18.00;99.90
18581;DHT22;9420;50.876;7.012;2022-10-31T15:04:00;17.90;99.90
18581;DHT22;9420;50.876;7.012;2022-10-31T15:06:40;17.90;99.90
18581;DHT22;9420;50.876;7.012;2022-10-31T15:09:21;17.90;99.90
18581;DHT22;9420;50.876;7.012;2022-10-31T15:11:50;17.80;99.90
18581;DHT22;9420;50.876;7.012;2022-10-31T15:14:22;17.80;99.90
18581;DHT22;9420;50.876;7.012;2022-10-31T15:16:51;17.80;99.90
18581;DHT22;9420;50.876;7.012;2022-10-31T15:19:24;17.80;99.90
18581;DHT22;9420;50.876;7.012;2022-10-31T15:21:54;17.80;99.90
18581;DHT22;9420;50.876;7.012;2022-10-31T15:24:24;17.70;99.90
18581;DHT22;9420;50.876;7.012;2022-10-31T15:26:57;17.70;99.90
18581;DHT22;9420;50.876;7.012;2022-10-31T15:29:25;17.70;99.90
18581;DHT22;9420;50.876;7.012;2022-10-31T15:31:56;17.70;99.90
18581;DHT22;9420;50.876;7.012;2022-10-31T15:34:34;17.60;99.90
18581;DHT22;9420;50.876;7.012;2022-10-31T15:37:07;17.60;99.90
18581;DHT22;9420;50.876;7.012;2022-10-31T15:39:37;17.60;99.90
18581;DHT22;9420;50.876;7.012;2022-10-31T15:42:13;17.50;99.90
18581;DHT22;9420;50.876;7.012;2022-10-31T15:44:48;17.40;99.90
18581;DHT22;9420;50.876;7.012;2022-10-31T15:47:20;17.30;99.90
18581;DHT22;9420;50.876;7.012;2022-10-31T15:49:53;17.30;99.90
18581;DHT22;9420;50.876;7.012;2022-10-31T15:52:28;17.10;99.90
18581;DHT22;9420;50.876;7.012;2022-10-31T15:55:00;17.00;99.90
18581;DHT22;9420;50.876;7.012;2022-10-31T15:57:30;17.00;99.90
18581;DHT22;9420;50.876;7.012;2022-10-31T15:59:58;16.90;99.90
18581;DHT22;9420;50.876;7.012;2022-10-31T16:02:26;16.80;99.90
18581;DHT22;9420;50.876;7.012;2022-10-31T16:04:56;16.70;99.90
18581;DHT22;9420;50.876;7.012;2022-10-31T16:07:26;16.60;99.90
18581;DHT22;9420;50.876;7.012;2022-10-31T16:09:56;16.50;99.90
18581;DHT22;9420;50.876;7.012;2022-10-31T16:12:25;16.40;99.90
18581;DHT22;9420;50.876;7.012;2022-10-31T16:14:57;16.40;99.90
18581;DHT22;9420;50.876;7.012;2022-10-31T16:17:26;16.30;99.90
18581;DHT22;9420;50.876;7.012;2022-10-31T16:19:57;16.20;99.90
18581;DHT22;9420;50.876;7.012;2022-10-31T16:22:30;16.20;99.90
18581;DHT22;9420;50.876;7.012;2022-10-31T16:25:03;16.20;99.90
18581;DHT22;9420;50.876;7.012;2022-10-31T16:27:36;16.10;99.90